createdAt,value
2022-11-29T00:01:33.809Z,93473.75
2022-11-29T00:04:02.272Z,93480.41
2022-11-29T00:06:32.209Z,93481.59
2022-11-29T00:09:04.517Z,93482.69
2022-11-29T00:11:53.782Z,93486.91
2022-11-29T00:14:22.155Z,93486.31
2022-11-29T00:16:52.573Z,93487.38
2022-11-29T00:19:21.017Z,93490.06
2022-11-29T00:21:48.403Z,93494.22
2022-11-29T00:24:16.625Z,93491.59
2022-11-29T00:26:44.114Z,93495.62
2022-11-29T00:29:14.439Z,93501.19
2022-11-29T00:31:43.232Z,93491.03
2022-11-29T00:34:12.180Z,93496.66
2022-11-29T00:36:40.049Z,93497.31
2022-11-29T00:39:07.780Z,93493.81
2022-11-29T00:41:35.040Z,93491.47
2022-11-29T00:44:02.335Z,93497.56
2022-11-29T00:46:29.910Z,93500.91
2022-11-29T00:48:57.225Z,93497.31
2022-11-29T00:51:24.576Z,93497.53
2022-11-29T00:53:52.137Z,93500.97
2022-11-29T00:56:19.479Z,93501.19
2022-11-29T00:58:48.715Z,93498.16
2022-11-29T01:01:16.487Z,93499.13
2022-11-29T01:03:44.066Z,93496.59
2022-11-29T01:06:14.618Z,93488.88
2022-11-29T01:08:42.898Z,93493.38
2022-11-29T01:11:22.546Z,93487.50
2022-11-29T01:13:52.025Z,93493.13
2022-11-29T01:16:20.058Z,93481.06
2022-11-29T01:18:47.854Z,93485.16
2022-11-29T01:21:18.897Z,93489.69
2022-11-29T01:23:46.809Z,93491.91
2022-11-29T01:26:18.158Z,93481.59
2022-11-29T01:28:47.835Z,93481.50
2022-11-29T01:31:19.134Z,93482.00
2022-11-29T01:33:47.228Z,93481.44
2022-11-29T01:36:15.031Z,93476.44
2022-11-29T01:38:45.202Z,93477.56
2022-11-29T01:41:21.522Z,93471.25
2022-11-29T01:44:06.019Z,93471.47
2022-11-29T01:46:39.437Z,93471.53
2022-11-29T01:49:29.196Z,93459.38
2022-11-29T01:52:17.010Z,93471.84
2022-11-29T01:54:48.624Z,93466.38
2022-11-29T01:57:16.998Z,93452.81
2022-11-29T01:59:48.575Z,93465.62
2022-11-29T02:02:21.136Z,93463.25
2022-11-29T02:04:49.835Z,93457.88
2022-11-29T02:07:17.550Z,93454.06
2022-11-29T02:09:44.884Z,93459.84
2022-11-29T02:12:19.027Z,93452.50
2022-11-29T02:14:55.678Z,93447.16
2022-11-29T02:17:43.186Z,93450.50
2022-11-29T02:20:51.737Z,93446.41
2022-11-29T02:23:56.707Z,93452.34
2022-11-29T02:27:12.324Z,93442.03
2022-11-29T02:30:04.515Z,93452.16
2022-11-29T02:33:06.198Z,93443.81
2022-11-29T02:35:33.588Z,93442.16
2022-11-29T02:38:04.376Z,93450.66
2022-11-29T02:41:05.319Z,93445.47
2022-11-29T02:44:10.363Z,93447.72
2022-11-29T02:47:09.618Z,93451.41
2022-11-29T02:49:53.954Z,93454.56
2022-11-29T02:52:31.709Z,93451.28
2022-11-29T02:55:52.070Z,93448.16
2022-11-29T02:58:54.337Z,93453.09
2022-11-29T03:01:40.961Z,93457.03
2022-11-29T03:04:26.417Z,93457.44
2022-11-29T03:07:39.421Z,93458.28
2022-11-29T03:10:34.310Z,93453.75
2022-11-29T03:13:06.173Z,93455.38
2022-11-29T03:15:48.573Z,93446.87
2022-11-29T03:18:42.049Z,93444.59
2022-11-29T03:21:28.048Z,93460.44
2022-11-29T03:24:04.525Z,93458.28
2022-11-29T03:26:37.949Z,93460.28
2022-11-29T03:29:45.944Z,93460.09
2022-11-29T03:32:23.013Z,93455.75
2022-11-29T03:34:57.127Z,93463.66
2022-11-29T03:37:47.560Z,93471.53
2022-11-29T03:40:19.825Z,93462.59
2022-11-29T03:42:59.376Z,93469.25
2022-11-29T03:45:52.240Z,93467.13
2022-11-29T03:48:29.507Z,93462.72
2022-11-29T03:51:04.030Z,93467.44
2022-11-29T03:53:37.447Z,93472.72
2022-11-29T03:56:29.487Z,93476.41
2022-11-29T03:59:12.730Z,93472.22
2022-11-29T04:02:28.648Z,93466.47
2022-11-29T04:05:37.892Z,93461.63
2022-11-29T04:08:31.640Z,93463.44
2022-11-29T04:11:37.295Z,93463.16
2022-11-29T04:14:13.502Z,93469.97
2022-11-29T04:17:10.706Z,93478.88
2022-11-29T04:20:14.008Z,93474.28
2022-11-29T04:23:10.455Z,93482.91
2022-11-29T04:26:34.658Z,93478.25
2022-11-29T04:29:26.491Z,93486.63
2022-11-29T04:32:00.102Z,93488.22
2022-11-29T04:35:12.627Z,93481.50
2022-11-29T04:38:09.076Z,93483.06
2022-11-29T04:40:58.003Z,93490.09
2022-11-29T04:44:09.841Z,93485.47
2022-11-29T04:46:46.586Z,93481.69
2022-11-29T04:49:53.207Z,93480.28
2022-11-29T04:52:26.726Z,93481.25
2022-11-29T04:55:21.651Z,93475.88
2022-11-29T04:58:07.077Z,93469.09
2022-11-29T05:01:04.613Z,93469.94
2022-11-29T05:03:35.873Z,93474.72
2022-11-29T05:06:28.886Z,93474.28
2022-11-29T05:09:51.167Z,93469.50
2022-11-29T05:12:32.657Z,93467.13
2022-11-29T05:15:19.006Z,93462.59
2022-11-29T05:18:17.206Z,93463.16
2022-11-29T05:20:53.792Z,93467.28
2022-11-29T05:24:06.686Z,93469.53
2022-11-29T05:26:44.290Z,93475.88
2022-11-29T05:29:20.934Z,93477.50
2022-11-29T05:32:39.540Z,93482.69
2022-11-29T05:35:44.385Z,93486.16
2022-11-29T05:38:24.453Z,93487.50
2022-11-29T05:41:24.679Z,93484.72
2022-11-29T05:44:07.749Z,93490.97
2022-11-29T05:46:52.982Z,93480.19
2022-11-29T05:49:29.688Z,93479.75
2022-11-29T05:52:30.916Z,93483.19
2022-11-29T05:55:14.347Z,93478.06
2022-11-29T05:58:00.634Z,93477.69
2022-11-29T06:00:52.168Z,93482.22
2022-11-29T06:03:39.461Z,93485.03
2022-11-29T06:06:19.563Z,93475.25
2022-11-29T06:08:55.712Z,93481.63
2022-11-29T06:11:43.299Z,93482.44
2022-11-29T06:14:42.767Z,93476.53
2022-11-29T06:17:10.283Z,93482.25
2022-11-29T06:20:04.466Z,93482.25
2022-11-29T06:23:08.042Z,93480.88
2022-11-29T06:25:53.466Z,93483.09
2022-11-29T06:28:51.699Z,93488.62
2022-11-29T06:32:00.229Z,93481.53
2022-11-29T06:34:47.678Z,93484.87
2022-11-29T06:37:23.717Z,93481.38
2022-11-29T06:39:51.718Z,93480.28
2022-11-29T06:42:19.405Z,93484.25
2022-11-29T06:44:48.072Z,93473.38
2022-11-29T06:47:49.718Z,93475.94
2022-11-29T06:50:43.872Z,93477.31
2022-11-29T06:53:18.706Z,93487.19
2022-11-29T06:55:46.703Z,93487.44
2022-11-29T06:58:36.039Z,93491.72
2022-11-29T07:01:18.573Z,93489.75
2022-11-29T07:04:24.454Z,93485.03
2022-11-29T07:06:53.801Z,93495.59
2022-11-29T07:09:25.629Z,93499.03
2022-11-29T07:11:53.554Z,93492.03
2022-11-29T07:14:21.687Z,93492.03
2022-11-29T07:16:57.638Z,93495.28
2022-11-29T07:19:44.359Z,93491.06
2022-11-29T07:22:33.961Z,93492.47
2022-11-29T07:25:29.500Z,93485.94
2022-11-29T07:28:19.369Z,93492.03
2022-11-29T07:31:00.154Z,93490.84
2022-11-29T07:33:47.213Z,93501.25
2022-11-29T07:36:38.296Z,93505.97
2022-11-29T07:39:24.454Z,93507.16
2022-11-29T07:42:06.703Z,93509.06
2022-11-29T07:44:55.333Z,93503.84
2022-11-29T07:47:22.989Z,93495.25
2022-11-29T07:49:51.112Z,93501.63
2022-11-29T07:52:18.354Z,93507.44
2022-11-29T07:54:46.505Z,93507.09
2022-11-29T07:57:14.016Z,93504.28
2022-11-29T07:59:41.578Z,93499.31
2022-11-29T08:02:12.191Z,93509.13
2022-11-29T08:04:44.704Z,93499.19
2022-11-29T08:07:13.072Z,93508.19
2022-11-29T08:09:41.914Z,93500.56
2022-11-29T08:12:09.316Z,93504.44
2022-11-29T08:14:36.794Z,93498.87
2022-11-29T08:17:05.708Z,93497.69
2022-11-29T08:19:32.993Z,93495.53
2022-11-29T08:22:00.332Z,93507.31
2022-11-29T08:24:28.863Z,93500.69
2022-11-29T08:26:56.801Z,93503.91
2022-11-29T08:29:25.746Z,93504.72
2022-11-29T08:31:54.788Z,93505.72
2022-11-29T08:34:23.873Z,93503.47
2022-11-29T08:36:54.782Z,93498.69
2022-11-29T08:39:23.398Z,93503.84
2022-11-29T08:41:50.651Z,93494.47
2022-11-29T08:44:18.369Z,93495.88
2022-11-29T08:47:04.522Z,93492.50
2022-11-29T08:49:32.196Z,93493.69
2022-11-29T08:52:18.782Z,93493.91
2022-11-29T08:54:46.388Z,93493.34
2022-11-29T08:57:39.037Z,93490.53
2022-11-29T09:00:02.276Z,93491.34
2022-11-29T09:02:31.602Z,93492.78
2022-11-29T09:04:58.920Z,93497.16
2022-11-29T09:07:28.806Z,93486.59
2022-11-29T09:09:56.485Z,93485.00
2022-11-29T09:12:23.877Z,93492.78
2022-11-29T09:14:51.261Z,93478.81
2022-11-29T09:17:18.890Z,93478.75
2022-11-29T09:19:46.559Z,93484.16
2022-11-29T09:22:14.304Z,93483.78
2022-11-29T09:24:42.272Z,93478.22
2022-11-29T09:27:11.613Z,93478.84
2022-11-29T09:29:39.647Z,93475.22
2022-11-29T09:32:07.744Z,93476.59
2022-11-29T09:34:35.268Z,93471.03
2022-11-29T09:37:03.086Z,93475.81
2022-11-29T09:39:30.655Z,93479.00
2022-11-29T09:42:06.326Z,93463.06
2022-11-29T09:45:07.999Z,93469.47
2022-11-29T09:48:16.868Z,93463.88
2022-11-29T09:51:04.949Z,93455.91
2022-11-29T09:53:56.637Z,93459.09
2022-11-29T09:56:36.785Z,93451.50
2022-11-29T09:59:19.601Z,93449.31
2022-11-29T10:01:54.936Z,93448.72
2022-11-29T10:04:29.207Z,93444.31
2022-11-29T10:07:08.834Z,93444.72
2022-11-29T10:10:05.186Z,93442.12
2022-11-29T10:12:46.168Z,93430.31
2022-11-29T10:15:27.576Z,93435.12
2022-11-29T10:18:02.663Z,93426.53
2022-11-29T10:20:42.442Z,93420.34
2022-11-29T10:23:12.047Z,93429.75
2022-11-29T10:25:47.558Z,93424.16
2022-11-29T10:28:17.993Z,93413.94
2022-11-29T10:30:46.706Z,93418.75
2022-11-29T10:33:25.673Z,93421.75
2022-11-29T10:35:57.034Z,93420.16
2022-11-29T10:38:32.361Z,93425.56
2022-11-29T10:41:09.683Z,93420.16
2022-11-29T10:43:37.927Z,93414.94
2022-11-29T10:46:10.918Z,93417.16
2022-11-29T10:48:38.815Z,93419.16
2022-11-29T10:51:17.078Z,93415.16
2022-11-29T10:53:45.914Z,93406.78
2022-11-29T10:56:31.472Z,93406.56
2022-11-29T10:59:03.400Z,93404.56
2022-11-29T11:01:38.660Z,93408.41
2022-11-29T11:04:10.200Z,93405.78
2022-11-29T11:06:47.200Z,93403.00
2022-11-29T11:09:39.342Z,93401.78
2022-11-29T11:12:22.500Z,93397.97
2022-11-29T11:14:51.608Z,93401.75
2022-11-29T11:17:22.662Z,93399.94
2022-11-29T11:20:20.203Z,93403.38
2022-11-29T11:23:03.657Z,93401.56
2022-11-29T11:25:35.423Z,93401.37
2022-11-29T11:28:28.832Z,93406.97
2022-11-29T11:31:02.470Z,93405.09
2022-11-29T11:33:48.863Z,93410.13
2022-11-29T11:36:27.546Z,93403.56
2022-11-29T11:39:13.526Z,93407.13
2022-11-29T11:42:04.133Z,93412.50
2022-11-29T11:44:53.796Z,93415.31
2022-11-29T11:47:33.207Z,93417.94
2022-11-29T11:50:02.367Z,93415.75
2022-11-29T11:52:52.583Z,93409.72
2022-11-29T11:55:43.137Z,93408.94
2022-11-29T11:58:13.754Z,93413.75
2022-11-29T12:01:06.114Z,93418.56
2022-11-29T12:03:50.107Z,93414.56
2022-11-29T12:06:43.983Z,93413.19
2022-11-29T12:09:28.559Z,93416.16
2022-11-29T12:12:15.874Z,93415.16
2022-11-29T12:14:51.151Z,93414.94
2022-11-29T12:17:33.667Z,93410.97
2022-11-29T12:20:07.782Z,93407.59
2022-11-29T12:22:48.548Z,93403.19
2022-11-29T12:25:23.505Z,93409.16
2022-11-29T12:27:52.295Z,93412.56
2022-11-29T12:30:20.789Z,93408.53
2022-11-29T12:33:17.516Z,93406.41
2022-11-29T12:36:04.878Z,93408.97
2022-11-29T12:38:41.232Z,93413.19
2022-11-29T12:41:50.956Z,93408.37
2022-11-29T12:44:30.038Z,93413.31
2022-11-29T12:47:35.680Z,93413.94
2022-11-29T12:50:41.517Z,93415.75
2022-11-29T12:53:27.475Z,93416.53
2022-11-29T12:56:17.778Z,93412.19
2022-11-29T12:58:54.670Z,93413.19
2022-11-29T13:01:40.303Z,93408.00
2022-11-29T13:04:21.449Z,93413.97
2022-11-29T13:07:01.123Z,93414.38
2022-11-29T13:09:57.723Z,93409.59
2022-11-29T13:12:41.159Z,93418.38
2022-11-29T13:15:17.036Z,93424.38
2022-11-29T13:18:11.404Z,93424.78
2022-11-29T13:20:39.429Z,93425.56
2022-11-29T13:23:16.541Z,93423.78
2022-11-29T13:25:48.027Z,93422.94
2022-11-29T13:28:23.276Z,93421.16
2022-11-29T13:30:52.579Z,93426.56
2022-11-29T13:33:26.046Z,93426.16
2022-11-29T13:36:21.361Z,93425.16
2022-11-29T13:39:07.026Z,93426.34
2022-11-29T13:41:46.831Z,93430.34
2022-11-29T13:44:33.946Z,93439.34
2022-11-29T13:47:14.938Z,93434.75
2022-11-29T13:49:59.433Z,93430.56
2022-11-29T13:52:36.441Z,93433.34
2022-11-29T13:55:10.460Z,93442.31
2022-11-29T14:00:44.596Z,93444.50
2022-11-29T14:03:24.444Z,93442.12
2022-11-29T14:06:10.361Z,93434.34
2022-11-29T14:12:06.145Z,93445.13
2022-11-29T14:14:51.980Z,93436.72
2022-11-29T14:17:34.707Z,93437.75
2022-11-29T14:20:28.599Z,93439.13
2022-11-29T14:23:05.404Z,93434.12
2022-11-29T14:25:51.627Z,93440.09
2022-11-29T14:28:22.586Z,93435.75
2022-11-29T14:30:59.139Z,93444.31
2022-11-29T14:33:47.924Z,93434.53
2022-11-29T14:36:15.680Z,93433.16
2022-11-29T14:39:17.518Z,93430.75
2022-11-29T14:41:51.239Z,93440.94
2022-11-29T14:44:31.253Z,93439.13
2022-11-29T14:47:03.499Z,93437.75
2022-11-29T14:49:32.065Z,93442.91
2022-11-29T14:52:07.196Z,93442.91
2022-11-29T14:54:36.553Z,93444.50
2022-11-29T14:57:59.254Z,93449.09
2022-11-29T15:00:35.292Z,93452.66
2022-11-29T15:03:29.028Z,93449.28
2022-11-29T15:06:14.388Z,93453.28
2022-11-29T15:08:50.313Z,93447.50
2022-11-29T15:11:50.763Z,93446.91
2022-11-29T15:14:32.665Z,93448.31
2022-11-29T15:17:42.737Z,93443.72
2022-11-29T15:20:51.571Z,93441.72
2022-11-29T15:23:19.296Z,93450.28
2022-11-29T15:25:52.677Z,93451.50
2022-11-29T15:28:27.237Z,93451.88
2022-11-29T15:31:07.642Z,93447.47
2022-11-29T15:33:40.086Z,93445.28
2022-11-29T15:36:14.957Z,93443.09
2022-11-29T15:39:01.825Z,93446.66
2022-11-29T15:41:30.960Z,93448.66
2022-11-29T15:44:07.577Z,93447.25
2022-11-29T15:46:36.683Z,93452.06
2022-11-29T15:49:19.703Z,93444.44
2022-11-29T15:51:55.281Z,93447.44
2022-11-29T15:54:42.905Z,93447.66
2022-11-29T15:57:23.591Z,93455.47
2022-11-29T15:59:56.718Z,93449.88
2022-11-29T16:02:28.333Z,93447.66
2022-11-29T16:05:04.346Z,93452.63
2022-11-29T16:07:34.546Z,93449.66
2022-11-29T16:10:07.929Z,93446.50
2022-11-29T16:12:35.297Z,93451.28
2022-11-29T16:15:03.828Z,93450.69
2022-11-29T16:17:34.413Z,93452.28
2022-11-29T16:20:23.616Z,93457.03
2022-11-29T16:23:14.486Z,93451.06
2022-11-29T16:25:59.534Z,93459.63
2022-11-29T16:28:50.286Z,93461.03
2022-11-29T16:31:20.048Z,93462.63
2022-11-29T16:33:50.309Z,93463.44
2022-11-29T16:36:29.138Z,93459.63
2022-11-29T16:39:01.357Z,93460.22
2022-11-29T16:41:34.338Z,93453.22
2022-11-29T16:44:03.783Z,93453.25
2022-11-29T16:46:37.489Z,93450.66
2022-11-29T16:49:37.480Z,93458.81
2022-11-29T16:52:24.050Z,93456.03
2022-11-29T16:54:52.382Z,93464.78
2022-11-29T16:57:20.028Z,93448.41
2022-11-29T16:59:47.500Z,93449.22
2022-11-29T17:02:16.065Z,93453.16
2022-11-29T17:04:44.699Z,93453.31
2022-11-29T17:07:22.599Z,93449.13
2022-11-29T17:09:50.237Z,93457.94
2022-11-29T17:12:17.663Z,93457.78
2022-11-29T17:14:45.628Z,93453.53
2022-11-29T17:17:18.440Z,93447.38
2022-11-29T17:19:46.050Z,93450.78
2022-11-29T17:22:14.100Z,93450.16
2022-11-29T17:24:47.761Z,93452.19
2022-11-29T17:27:16.419Z,93454.78
2022-11-29T17:29:44.386Z,93461.78
2022-11-29T17:32:12.257Z,93460.59
2022-11-29T17:34:39.899Z,93467.38
2022-11-29T17:37:07.738Z,93471.38
2022-11-29T17:39:35.317Z,93468.03
2022-11-29T17:42:03.075Z,93472.97
2022-11-29T17:44:30.625Z,93473.22
2022-11-29T17:46:57.970Z,93472.19
2022-11-29T17:49:26.493Z,93479.56
2022-11-29T17:51:54.226Z,93481.56
2022-11-29T17:54:22.808Z,93486.97
2022-11-29T17:56:51.012Z,93481.44
2022-11-29T17:59:18.726Z,93483.59
2022-11-29T18:01:49.005Z,93483.38
2022-11-29T18:04:16.979Z,93490.94
2022-11-29T18:06:50.349Z,93490.53
2022-11-29T18:09:19.876Z,93485.38
2022-11-29T18:11:49.878Z,93486.59
2022-11-29T18:14:21.354Z,93492.16
2022-11-29T18:16:49.537Z,93488.97
2022-11-29T18:19:20.013Z,93491.78
2022-11-29T18:21:47.720Z,93494.75
2022-11-29T18:24:16.730Z,93498.63
2022-11-29T18:26:44.273Z,93507.06
2022-11-29T18:29:12.615Z,93510.50
2022-11-29T18:31:43.411Z,93505.13
2022-11-29T18:34:13.262Z,93500.94
2022-11-29T18:36:44.306Z,93505.94
2022-11-29T18:39:18.183Z,93501.31
2022-11-29T18:41:50.443Z,93499.53
2022-11-29T18:44:20.094Z,93500.72
2022-11-29T18:46:48.199Z,93504.12
2022-11-29T18:49:17.340Z,93497.75
2022-11-29T18:51:46.152Z,93490.38
2022-11-29T18:54:15.997Z,93492.19
2022-11-29T18:56:43.794Z,93492.59
2022-11-29T18:59:17.425Z,93490.19
2022-11-29T19:01:47.797Z,93485.59
2022-11-29T19:04:18.359Z,93477.37
2022-11-29T19:06:46.636Z,93477.31
2022-11-29T19:09:21.402Z,93475.19
2022-11-29T19:11:50.569Z,93475.22
2022-11-29T19:14:18.759Z,93472.34
2022-11-29T19:16:48.015Z,93471.13
2022-11-29T19:19:16.206Z,93476.56
2022-11-29T19:21:43.998Z,93477.41
2022-11-29T19:24:14.977Z,93485.03
2022-11-29T19:26:45.073Z,93483.84
2022-11-29T19:29:16.441Z,93482.88
2022-11-29T19:31:59.218Z,93488.25
2022-11-29T19:34:36.193Z,93480.69
2022-11-29T19:37:04.074Z,93484.13
2022-11-29T19:39:34.110Z,93496.09
2022-11-29T19:42:01.775Z,93493.28
2022-11-29T19:44:39.076Z,93496.72
2022-11-29T19:47:16.287Z,93490.50
2022-11-29T19:49:46.718Z,93488.72
2022-11-29T19:52:15.227Z,93491.13
2022-11-29T19:54:42.827Z,93482.97
2022-11-29T19:57:13.181Z,93490.75
2022-11-29T19:59:41.794Z,93484.00
2022-11-29T20:02:10.965Z,93486.38
2022-11-29T20:04:38.707Z,93476.81
2022-11-29T20:07:06.886Z,93488.97
2022-11-29T20:09:34.468Z,93473.22
2022-11-29T20:12:02.161Z,93480.19
2022-11-29T20:14:29.833Z,93479.78
2022-11-29T20:16:58.626Z,93481.41
2022-11-29T20:19:27.750Z,93473.62
2022-11-29T20:21:55.535Z,93471.47
2022-11-29T20:24:23.427Z,93478.41
2022-11-29T20:26:51.401Z,93473.38
2022-11-29T20:29:25.638Z,93471.72
2022-11-29T20:31:55.044Z,93474.94
2022-11-29T20:34:22.585Z,93475.56
2022-11-29T20:37:10.047Z,93477.00
2022-11-29T20:39:48.581Z,93468.19
2022-11-29T20:42:22.265Z,93470.63
2022-11-29T20:44:55.766Z,93465.81
2022-11-29T20:47:26.594Z,93467.81
2022-11-29T20:49:54.833Z,93473.44
2022-11-29T20:52:45.160Z,93462.44
2022-11-29T20:55:12.857Z,93474.78
2022-11-29T20:57:40.273Z,93472.56
2022-11-29T21:00:11.574Z,93474.53
2022-11-29T21:02:39.796Z,93467.63
2022-11-29T21:05:07.917Z,93466.03
2022-11-29T21:07:35.483Z,93473.44
2022-11-29T21:10:03.905Z,93473.38
2022-11-29T21:12:32.035Z,93464.81
2022-11-29T21:14:59.744Z,93461.03
2022-11-29T21:17:33.223Z,93461.59
2022-11-29T21:20:03.355Z,93463.22
2022-11-29T21:22:50.614Z,93458.22
2022-11-29T21:25:43.366Z,93462.84
2022-11-29T21:28:16.288Z,93457.06
2022-11-29T21:30:44.257Z,93462.25
2022-11-29T21:33:12.385Z,93461.84
2022-11-29T21:35:40.208Z,93469.81
2022-11-29T21:38:13.776Z,93469.44
2022-11-29T21:40:41.493Z,93476.22
2022-11-29T21:43:08.875Z,93468.66
2022-11-29T21:45:36.436Z,93469.63
2022-11-29T21:48:04.249Z,93463.63
2022-11-29T21:50:31.803Z,93457.06
2022-11-29T21:52:59.088Z,93464.66
2022-11-29T21:55:31.783Z,93471.34
2022-11-29T21:57:59.739Z,93467.22
2022-11-29T22:00:27.425Z,93458.25
2022-11-29T22:02:56.555Z,93463.63
2022-11-29T22:05:23.834Z,93460.03
2022-11-29T22:07:55.713Z,93466.63
2022-11-29T22:10:23.437Z,93455.84
2022-11-29T22:12:52.624Z,93458.44
2022-11-29T22:15:24.436Z,93450.44
2022-11-29T22:17:53.573Z,93439.50
2022-11-29T22:20:20.977Z,93445.69
2022-11-29T22:22:48.770Z,93441.50
2022-11-29T22:25:16.492Z,93435.53
2022-11-29T22:27:44.123Z,93436.47
2022-11-29T22:30:15.761Z,93437.50
2022-11-29T22:32:43.551Z,93436.31
2022-11-29T22:35:10.848Z,93435.88
2022-11-29T22:37:38.152Z,93434.88
2022-11-29T22:40:06.759Z,93435.06
2022-11-29T22:42:34.001Z,93431.69
2022-11-29T22:45:02.335Z,93426.91
2022-11-29T22:47:30.039Z,93421.94
2022-11-29T22:49:57.363Z,93430.69
2022-11-29T22:52:27.514Z,93421.56
2022-11-29T22:54:58.700Z,93413.38
2022-11-29T22:57:28.597Z,93422.13
2022-11-29T22:59:56.155Z,93415.94
2022-11-29T23:02:23.429Z,93418.97
2022-11-29T23:04:50.876Z,93415.56
2022-11-29T23:07:18.565Z,93417.59
2022-11-29T23:09:45.912Z,93419.16
2022-11-29T23:12:13.184Z,93420.56
2022-11-29T23:14:40.815Z,93421.16
2022-11-29T23:17:08.085Z,93415.59
2022-11-29T23:19:35.360Z,93417.19
2022-11-29T23:22:03.006Z,93412.41
2022-11-29T23:24:30.593Z,93412.19
2022-11-29T23:26:59.937Z,93419.38
2022-11-29T23:29:28.535Z,93415.78
2022-11-29T23:31:56.573Z,93419.97
2022-11-29T23:34:23.842Z,93420.19
2022-11-29T23:36:53.069Z,93420.38
2022-11-29T23:39:20.777Z,93418.00
2022-11-29T23:41:48.022Z,93407.97
2022-11-29T23:44:15.587Z,93414.97
2022-11-29T23:46:42.933Z,93407.19
2022-11-29T23:49:10.217Z,93412.00
2022-11-29T23:51:37.824Z,93412.41
2022-11-29T23:54:05.162Z,93411.78
2022-11-29T23:56:35.646Z,93411.59
2022-11-29T23:59:03.831Z,93411.19
